Time;durP1;ratioP1;P1;durP2;ratioP2;P2;SDS_P1;SDS_P2;PMS_P1;PMS_P2;Temp;Humidity;BMP_temperature;BMP_pressure;BME280_temperature;BME280_humidity;BME280_pressure;Samples;Min_cycle;Max_cycle;Signal;HPM_P1;HPM_P2
2023/07/04 00:02:22;;;;;;;0.10;0.10;;;14.10;58.70;;;;;;5094747;28;20214;-56
2023/07/04 00:04:53;;;;;;;0.10;0.10;;;14.20;58.90;;;;;;5094338;28;20712;-56
2023/07/04 00:07:23;;;;;;;0.10;0.10;;;14.20;59.00;;;;;;5094663;28;20218;-57
2023/07/04 00:09:54;;;;;;;0.10;0.10;;;14.20;59.00;;;;;;5093543;28;20190;-59
2023/07/04 00:12:26;;;;;;;0.10;0.10;;;14.20;59.00;;;;;;5091974;28;20249;-54
2023/07/04 00:14:57;;;;;;;0.10;0.10;;;14.30;59.00;;;;;;5074030;28;20199;-54
2023/07/04 00:17:28;;;;;;;0.10;0.10;;;14.30;58.90;;;;;;5074185;28;20631;-52
2023/07/04 00:20:00;;;;;;;0.10;0.10;;;14.30;58.90;;;;;;5089676;28;20543;-57
2023/07/04 00:22:31;;;;;;;0.10;0.10;;;14.40;58.90;;;;;;5094216;28;20219;-55
2023/07/04 00:25:02;;;;;;;0.10;0.10;;;14.40;58.70;;;;;;5087574;28;20187;-54
2023/07/04 00:27:34;;;;;;;0.10;0.10;;;14.40;58.70;;;;;;5082555;28;20222;-54
2023/07/04 00:30:05;;;;;;;0.10;0.10;;;14.40;58.70;;;;;;5083844;28;20190;-55
2023/07/04 00:32:36;;;;;;;0.10;0.10;;;14.40;58.70;;;;;;5084740;28;20239;-55
2023/07/04 00:35:07;;;;;;;0.05;0.05;;;14.40;58.80;;;;;;5076990;28;20790;-53
2023/07/04 00:37:38;;;;;;;0.10;0.10;;;14.50;58.80;;;;;;5074069;28;20253;-59
2023/07/04 00:40:12;;;;;;;0.10;0.10;;;14.50;58.90;;;;;;5073833;28;20198;-51
2023/07/04 00:42:45;;;;;;;0.10;0.10;;;14.60;59.00;;;;;;5078976;28;20291;-57
2023/07/04 00:45:20;;;;;;;0.10;0.10;;;14.60;59.10;;;;;;5093657;28;20637;-54
2023/07/04 00:47:53;;;;;;;0.10;0.10;;;14.60;59.00;;;;;;5094056;28;20218;-60
2023/07/04 00:50:28;;;;;;;0.10;0.10;;;14.60;58.90;;;;;;5092935;28;20737;-58
2023/07/04 00:53:02;;;;;;;0.10;0.10;;;14.70;58.90;;;;;;5094225;28;20271;-55
2023/07/04 00:55:35;;;;;;;0.05;0.05;;;14.70;58.90;;;;;;5093431;28;20289;-56
2023/07/04 00:58:07;;;;;;;0.10;0.10;;;14.70;59.40;;;;;;5093609;28;20204;-53
2023/07/04 01:00:41;;;;;;;0.10;0.10;;;14.70;58.80;;;;;;5093801;28;20200;-54
2023/07/04 01:03:15;;;;;;;0.00;0.00;;;14.70;58.70;;;;;;5093542;28;20214;-55
2023/07/04 01:05:54;;;;;;;0.10;0.10;;;14.80;58.80;;;;;;5094374;28;20578;-53
2023/07/04 01:08:28;;;;;;;0.10;0.10;;;14.80;58.70;;;;;;5092477;28;20619;-57
2023/07/04 01:11:01;;;;;;;0.03;0.03;;;14.90;58.80;;;;;;5093083;28;20197;-56
2023/07/04 01:13:36;;;;;;;0.10;0.10;;;14.80;58.90;;;;;;5081400;28;20222;-58
2023/07/04 01:16:09;;;;;;;0.10;0.10;;;14.90;59.20;;;;;;5073543;28;20681;-52
2023/07/04 01:18:40;;;;;;;0.10;0.10;;;14.90;59.20;;;;;;5084582;28;20298;-60
2023/07/04 01:21:12;;;;;;;0.10;0.10;;;14.90;59.10;;;;;;5093165;28;20611;-58
2023/07/04 01:23:47;;;;;;;0.10;0.10;;;15.00;59.10;;;;;;5093211;28;20194;-53
2023/07/04 01:26:31;;;;;;;0.10;0.10;;;15.00;59.10;;;;;;5082574;28;20185;-59
2023/07/04 01:29:03;;;;;;;0.10;0.10;;;15.00;59.10;;;;;;5092229;28;20740;-59
2023/07/04 01:31:35;;;;;;;0.10;0.10;;;15.10;59.00;;;;;;5092453;28;20233;-55
2023/07/04 01:34:07;;;;;;;0.10;0.10;;;15.10;59.00;;;;;;5093175;28;20190;-59
2023/07/04 01:36:40;;;;;;;0.10;0.10;;;15.10;59.00;;;;;;5092660;28;20198;-60
2023/07/04 01:39:15;;;;;;;0.08;0.08;;;15.20;59.00;;;;;;5089144;28;20198;-60
2023/07/04 01:41:48;;;;;;;0.10;0.10;;;15.20;59.00;;;;;;5091958;28;20221;-58
2023/07/04 01:44:24;;;;;;;0.10;0.10;;;15.20;58.90;;;;;;5092700;28;20207;-59
2023/07/04 01:46:55;;;;;;;0.10;0.10;;;15.30;58.90;;;;;;5092103;28;20619;-58
2023/07/04 01:49:25;;;;;;;0.10;0.10;;;15.30;58.90;;;;;;5093210;28;20224;-59
2023/07/04 01:51:56;;;;;;;0.10;0.10;;;15.30;58.90;;;;;;5091955;28;20214;-58
2023/07/04 01:54:27;;;;;;;0.10;0.10;;;15.30;58.90;;;;;;5093232;28;20197;-58
2023/07/04 01:56:59;;;;;;;0.08;0.08;;;15.30;58.90;;;;;;5092529;28;20198;-55
2023/07/04 01:59:30;;;;;;;0.10;0.10;;;15.40;58.80;;;;;;5092167;28;20202;-59
2023/07/04 02:02:00;;;;;;;0.10;0.10;;;15.40;58.80;;;;;;5091293;28;20596;-60
2023/07/04 02:04:31;;;;;;;0.10;0.10;;;15.40;58.80;;;;;;5092311;28;20679;-59
2023/07/04 02:07:02;;;;;;;0.10;0.10;;;15.40;58.80;;;;;;5092613;28;20564;-59
2023/07/04 02:09:32;;;;;;;0.10;0.10;;;15.50;58.90;;;;;;5092356;28;20232;-59
2023/07/04 02:12:05;;;;;;;0.08;0.08;;;15.50;58.90;;;;;;5092411;28;20217;-60
2023/07/04 02:14:36;;;;;;;0.10;0.10;;;15.50;58.80;;;;;;5072769;28;20198;-53
2023/07/04 02:17:06;;;;;;;0.00;0.00;;;15.60;58.80;;;;;;5077037;28;20226;-54
2023/07/04 02:19:37;;;;;;;0.10;0.10;;;15.60;58.70;;;;;;5092639;28;20198;-55
2023/07/04 02:22:08;;;;;;;0.10;0.10;;;15.60;58.60;;;;;;5092111;28;20234;-55
2023/07/04 02:24:39;;;;;;;0.10;0.10;;;15.60;58.70;;;;;;5092667;28;20194;-57
2023/07/04 02:27:11;;;;;;;0.10;0.10;;;15.70;58.70;;;;;;5092521;28;20194;-52
2023/07/04 02:29:42;;;;;;;0.10;0.10;;;15.70;58.70;;;;;;5092493;28;20222;-57
2023/07/04 02:32:13;;;;;;;0.10;0.10;;;15.70;58.70;;;;;;5092451;28;20218;-56
2023/07/04 02:34:43;;;;;;;0.10;0.10;;;15.70;58.60;;;;;;5092390;28;20677;-56
2023/07/04 02:37:14;;;;;;;0.10;0.10;;;15.70;58.70;;;;;;5092416;28;20565;-58
2023/07/04 02:39:44;;;;;;;0.00;0.00;;;15.80;58.70;;;;;;5085935;28;20264;-55
2023/07/04 02:42:17;;;;;;;0.05;0.05;;;15.80;58.70;;;;;;5075347;28;20213;-58
2023/07/04 02:44:48;;;;;;;0.10;0.10;;;15.90;58.80;;;;;;5091926;28;20637;-55
2023/07/04 02:47:23;;;;;;;0.10;0.10;;;15.90;58.70;;;;;;5072345;28;20201;-53
2023/07/04 02:49:53;;;;;;;0.10;0.10;;;15.90;58.70;;;;;;5071098;28;20218;-56
2023/07/04 02:52:24;;;;;;;0.10;0.10;;;16.00;58.90;;;;;;5071856;28;20225;-53
2023/07/04 02:54:55;;;;;;;0.10;0.10;;;16.00;58.80;;;;;;5072044;28;20286;-51
2023/07/04 02:57:28;;;;;;;0.10;0.10;;;16.10;58.80;;;;;;5070772;28;20195;-58
2023/07/04 02:59:59;;;;;;;0.00;0.00;;;16.10;58.80;;;;;;5071380;28;20203;-57
2023/07/04 03:02:29;;;;;;;0.10;0.10;;;16.10;58.70;;;;;;5070844;28;20306;-55
2023/07/04 03:05:00;;;;;;;0.00;0.00;;;16.10;58.70;;;;;;5070692;28;20437;-57
2023/07/04 03:07:31;;;;;;;0.10;0.10;;;16.10;58.60;;;;;;5073742;28;20202;-58
2023/07/04 03:10:01;;;;;;;0.10;0.10;;;16.20;58.60;;;;;;5090486;28;20617;-56
2023/07/04 03:12:34;;;;;;;0.05;0.05;;;16.20;58.60;;;;;;5087941;28;20245;-54
2023/07/04 03:15:05;;;;;;;0.00;0.00;;;16.20;58.60;;;;;;5070377;28;20218;-54
2023/07/04 03:17:35;;;;;;;0.00;0.00;;;16.30;58.70;;;;;;5071378;28;20659;-57
2023/07/04 03:20:09;;;;;;;0.10;0.10;;;16.30;58.60;;;;;;5072171;28;20203;-57
2023/07/04 03:22:41;;;;;;;0.00;0.00;;;16.30;58.60;;;;;;5071238;28;20305;-56
2023/07/04 03:25:16;;;;;;;0.08;0.08;;;16.30;58.50;;;;;;5070909;28;20205;-55
2023/07/04 03:27:49;;;;;;;0.00;0.00;;;16.40;58.40;;;;;;5070138;28;20282;-52
2023/07/04 03:30:19;;;;;;;0.05;0.05;;;16.40;58.40;;;;;;5071000;28;20206;-55
2023/07/04 03:32:50;;;;;;;0.03;0.03;;;16.40;58.40;;;;;;5070617;28;20211;-59
2023/07/04 03:35:21;;;;;;;0.00;0.00;;;16.40;58.40;;;;;;5083968;28;20221;-57
2023/07/04 03:37:51;;;;;;;0.10;0.10;;;16.50;58.40;;;;;;5086930;28;20193;-53
2023/07/04 03:40:22;;;;;;;0.00;0.00;;;16.50;58.40;;;;;;5090479;28;20194;-55
2023/07/04 03:42:54;;;;;;;0.10;0.10;;;16.50;58.30;;;;;;5079017;28;20218;-53
2023/07/04 03:45:25;;;;;;;0.00;0.00;;;16.50;58.30;;;;;;5079317;28;20182;-49
2023/07/04 03:47:56;;;;;;;0.10;0.10;;;16.60;58.30;;;;;;5078938;28;20202;-51
2023/07/04 03:50:26;;;;;;;0.10;0.10;;;16.60;58.20;;;;;;5071327;28;20545;-53
2023/07/04 03:52:57;;;;;;;0.13;0.13;;;16.60;58.20;;;;;;5071462;28;20218;-51
2023/07/04 03:55:27;;;;;;;0.00;0.00;;;16.60;58.30;;;;;;5071170;28;20197;-56
2023/07/04 03:58:00;;;;;;;0.10;0.10;;;16.60;58.20;;;;;;5088471;28;20194;-55
2023/07/04 04:00:31;;;;;;;0.10;0.10;;;16.70;58.20;;;;;;5091443;28;20586;-56
2023/07/04 04:03:01;;;;;;;0.00;0.00;;;16.70;58.10;;;;;;5091207;28;20237;-56
2023/07/04 04:05:32;;;;;;;0.10;0.10;;;16.70;58.10;;;;;;5091242;28;20202;-58
2023/07/04 04:08:03;;;;;;;0.03;0.03;;;16.80;58.10;;;;;;5090673;28;20190;-58
2023/07/04 04:10:33;;;;;;;0.10;0.10;;;16.80;58.00;;;;;;5091331;28;20190;-53
2023/07/04 04:13:06;;;;;;;0.10;0.10;;;16.90;58.00;;;;;;5083347;28;20219;-48
2023/07/04 04:15:36;;;;;;;0.10;0.10;;;16.90;58.00;;;;;;5071561;28;20225;-53
2023/07/04 04:18:07;;;;;;;0.10;0.10;;;16.90;57.90;;;;;;5075641;28;20506;-55
2023/07/04 04:20:38;;;;;;;0.10;0.10;;;16.90;57.90;;;;;;5090257;28;20209;-55
2023/07/04 04:23:09;;;;;;;0.00;0.00;;;16.90;57.90;;;;;;5083018;28;20292;-55
2023/07/04 04:25:40;;;;;;;0.10;0.10;;;17.00;57.80;;;;;;5072071;28;20225;-51
2023/07/04 04:28:12;;;;;;;0.10;0.10;;;17.00;57.80;;;;;;5073481;28;20259;-50
2023/07/04 04:30:43;;;;;;;0.00;0.00;;;17.00;57.70;;;;;;5074589;28;20206;-55
2023/07/04 04:33:16;;;;;;;0.10;0.10;;;17.00;57.60;;;;;;5073625;28;20215;-55
2023/07/04 04:35:48;;;;;;;0.00;0.00;;;17.00;57.50;;;;;;5085113;28;20221;-57
2023/07/04 04:38:18;;;;;;;0.10;0.10;;;17.10;57.50;;;;;;5093221;28;20202;-51
2023/07/04 04:40:50;;;;;;;0.05;0.05;;;17.10;57.50;;;;;;5093280;28;20194;-54
2023/07/04 04:43:22;;;;;;;0.10;0.10;;;17.10;57.40;;;;;;5093246;28;20226;-53
2023/07/04 04:45:53;;;;;;;0.10;0.10;;;17.10;57.40;;;;;;5093737;28;20281;-55
2023/07/04 04:48:29;;;;;;;0.10;0.10;;;17.20;57.50;;;;;;5094098;28;20514;-57
2023/07/04 04:51:00;;;;;;;0.10;0.10;;;17.20;57.50;;;;;;5093782;28;20194;-55
2023/07/04 04:53:30;;;;;;;0.10;0.10;;;17.20;57.50;;;;;;5093785;28;20218;-58
2023/07/04 04:56:01;;;;;;;0.10;0.10;;;17.20;57.50;;;;;;5093415;28;20655;-51
2023/07/04 04:58:34;;;;;;;0.00;0.00;;;17.20;57.40;;;;;;5093600;28;20650;-56
2023/07/04 05:01:09;;;;;;;0.10;0.10;;;17.20;57.40;;;;;;5093023;28;20619;-58
2023/07/04 05:03:40;;;;;;;0.10;0.10;;;17.10;57.30;;;;;;5092318;28;20216;-53
2023/07/04 05:06:10;;;;;;;0.10;0.10;;;17.10;57.30;;;;;;5093510;28;20194;-51
2023/07/04 05:08:41;;;;;;;0.03;0.03;;;17.10;57.30;;;;;;5092957;28;20217;-55
2023/07/04 05:11:13;;;;;;;0.00;0.00;;;17.10;57.20;;;;;;5091689;28;20194;-59
2023/07/04 05:13:46;;;;;;;0.00;0.00;;;17.10;57.20;;;;;;5086057;28;20284;-52
2023/07/04 05:16:18;;;;;;;0.10;0.10;;;17.10;57.20;;;;;;5092857;28;20666;-59
2023/07/04 05:18:50;;;;;;;0.00;0.00;;;17.10;57.20;;;;;;5076710;28;20195;-54
2023/07/04 05:21:21;;;;;;;0.00;0.00;;;17.10;57.20;;;;;;5077003;28;20650;-59
2023/07/04 05:23:53;;;;;;;0.00;0.00;;;17.10;57.20;;;;;;5093714;28;20199;-56
2023/07/04 05:26:25;;;;;;;0.05;0.05;;;17.10;57.20;;;;;;5093751;28;20226;-51
2023/07/04 05:28:59;;;;;;;0.10;0.10;;;17.10;57.10;;;;;;5085023;28;20276;-52
2023/07/04 05:31:32;;;;;;;0.00;0.00;;;17.10;57.10;;;;;;5074542;28;20229;-53
2023/07/04 05:34:03;;;;;;;0.10;0.10;;;17.10;57.10;;;;;;5073178;28;20240;-54
2023/07/04 05:36:37;;;;;;;0.10;0.10;;;17.10;57.00;;;;;;5092849;28;20194;-50
2023/07/04 05:39:08;;;;;;;0.10;0.10;;;17.10;56.90;;;;;;5093041;28;20194;-56
2023/07/04 05:41:40;;;;;;;0.05;0.05;;;17.00;56.90;;;;;;5090667;28;20244;-57
2023/07/04 05:44:13;;;;;;;0.05;0.05;;;17.00;56.90;;;;;;5089218;28;20229;-58
2023/07/04 05:46:44;;;;;;;0.08;0.08;;;17.00;56.80;;;;;;5089036;28;20194;-52
2023/07/04 05:49:14;;;;;;;0.00;0.00;;;17.00;56.80;;;;;;5072358;28;20221;-59
2023/07/04 05:51:45;;;;;;;0.00;0.00;;;17.00;56.80;;;;;;5072715;28;20215;-55
2023/07/04 05:54:16;;;;;;;0.10;0.10;;;17.00;56.80;;;;;;5072344;28;20203;-60
2023/07/04 05:56:46;;;;;;;0.00;0.00;;;16.90;56.90;;;;;;5071851;28;20191;-53
2023/07/04 05:59:19;;;;;;;0.10;0.10;;;16.90;56.90;;;;;;5072117;28;20650;-55
2023/07/04 06:01:50;;;;;;;0.10;0.10;;;16.90;56.90;;;;;;5072171;28;20649;-58
2023/07/04 06:04:21;;;;;;;0.03;0.03;;;16.90;57.00;;;;;;5078334;28;20226;-57
2023/07/04 06:06:54;;;;;;;0.10;0.10;;;16.90;56.90;;;;;;5090161;28;20661;-53
2023/07/04 06:09:25;;;;;;;0.10;0.10;;;16.90;56.90;;;;;;5072481;28;20622;-56
2023/07/04 06:11:55;;;;;;;0.00;0.00;;;16.90;56.90;;;;;;5091202;28;20213;-59
2023/07/04 06:14:30;;;;;;;0.05;0.05;;;16.90;56.80;;;;;;5082850;28;20205;-55
2023/07/04 06:17:02;;;;;;;0.10;0.10;;;16.90;56.80;;;;;;5092210;28;20202;-52
2023/07/04 06:19:33;;;;;;;0.00;0.00;;;16.90;56.80;;;;;;5091658;28;20198;-57
2023/07/04 06:22:07;;;;;;;0.00;0.00;;;16.80;56.70;;;;;;5092087;28;20224;-56
2023/07/04 06:24:38;;;;;;;0.08;0.08;;;16.80;56.70;;;;;;5092295;28;20630;-52
2023/07/04 06:27:08;;;;;;;0.10;0.10;;;16.80;56.70;;;;;;5092365;28;20286;-57
2023/07/04 06:29:41;;;;;;;0.05;0.05;;;16.70;56.70;;;;;;5091383;28;20226;-48
2023/07/04 06:32:12;;;;;;;0.00;0.00;;;16.70;56.60;;;;;;5081661;28;20273;-56
2023/07/04 06:34:42;;;;;;;0.03;0.03;;;16.70;56.70;;;;;;5071907;28;20222;-55
2023/07/04 06:37:13;;;;;;;0.10;0.10;;;16.70;56.60;;;;;;5072865;28;20198;-56
2023/07/04 06:39:44;;;;;;;0.00;0.00;;;16.70;56.70;;;;;;5076712;28;20198;-58
2023/07/04 06:42:15;;;;;;;0.10;0.10;;;16.70;56.60;;;;;;5072272;28;20215;-59
2023/07/04 06:44:49;;;;;;;0.00;0.00;;;16.60;56.50;;;;;;5091076;28;20194;-60
2023/07/04 06:47:20;;;;;;;0.00;0.00;;;16.70;56.60;;;;;;5091088;28;20190;-55
2023/07/04 06:49:51;;;;;;;0.10;0.10;;;16.70;56.50;;;;;;5091147;28;20226;-58
2023/07/04 06:52:21;;;;;;;0.00;0.00;;;16.60;56.40;;;;;;5092075;28;20218;-57
2023/07/04 06:54:53;;;;;;;0.10;0.10;;;16.60;56.40;;;;;;5092428;28;20582;-54
2023/07/04 06:57:24;;;;;;;0.08;0.08;;;16.60;56.40;;;;;;5091516;28;20198;-53
2023/07/04 06:59:56;;;;;;;0.00;0.00;;;16.60;56.40;;;;;;5090532;28;20209;-52
2023/07/04 07:02:27;;;;;;;0.00;0.00;;;16.50;56.40;;;;;;5090060;28;20218;-54
2023/07/04 07:04:58;;;;;;;0.10;0.10;;;16.50;56.40;;;;;;5090893;28;20194;-56
2023/07/04 07:07:28;;;;;;;0.00;0.00;;;16.50;56.50;;;;;;5090933;28;20198;-57
2023/07/04 07:09:59;;;;;;;0.00;0.00;;;16.50;56.40;;;;;;5090846;28;20222;-55
2023/07/04 07:12:31;;;;;;;0.10;0.10;;;16.40;56.40;;;;;;5087722;28;20222;-56
2023/07/04 07:15:04;;;;;;;0.10;0.10;;;16.40;56.40;;;;;;5070930;28;20198;-56
2023/07/04 07:17:36;;;;;;;0.10;0.10;;;16.40;56.30;;;;;;5070845;28;20195;-53
2023/07/04 07:20:07;;;;;;;0.10;0.10;;;16.40;56.30;;;;;;5070802;28;20198;-56
2023/07/04 07:22:38;;;;;;;0.10;0.10;;;16.40;56.20;;;;;;5071182;28;20268;-59
2023/07/04 07:25:09;;;;;;;0.10;0.10;;;16.40;56.20;;;;;;5089340;28;20194;-53
2023/07/04 07:27:40;;;;;;;0.03;0.03;;;16.30;56.20;;;;;;5088278;28;20190;-59
2023/07/04 07:30:13;;;;;;;0.10;0.10;;;16.30;56.20;;;;;;5090304;28;20232;-55
2023/07/04 07:32:44;;;;;;;0.10;0.10;;;16.30;56.20;;;;;;5091290;28;20218;-52
2023/07/04 07:35:14;;;;;;;0.20;0.20;;;16.30;56.20;;;;;;5090448;28;20212;-60
2023/07/04 07:37:45;;;;;;;0.05;0.05;;;16.30;56.20;;;;;;5090089;28;20603;-55
2023/07/04 07:40:16;;;;;;;0.00;0.00;;;16.30;56.10;;;;;;5091641;28;20194;-56
2023/07/04 07:42:47;;;;;;;0.10;0.10;;;16.30;56.10;;;;;;5091300;28;20218;-52
2023/07/04 07:45:19;;;;;;;0.10;0.10;;;16.30;56.10;;;;;;5090700;28;20193;-57
2023/07/04 07:47:50;;;;;;;0.10;0.10;;;16.20;56.00;;;;;;5090831;28;20190;-54
2023/07/04 07:50:23;;;;;;;0.10;0.10;;;16.20;56.00;;;;;;5091598;28;20232;-55
2023/07/04 07:52:55;;;;;;;0.10;0.10;;;16.20;56.00;;;;;;5089660;28;20218;-57
2023/07/04 07:55:25;;;;;;;0.10;0.10;;;16.20;56.60;;;;;;5091567;28;20201;-58
2023/07/04 07:57:56;;;;;;;0.08;0.08;;;16.10;55.90;;;;;;5090078;28;20194;-59
2023/07/04 08:00:31;;;;;;;0.10;0.10;;;16.10;55.90;;;;;;5095199;28;20194;-55
2023/07/04 08:03:01;;;;;;;0.10;0.10;;;16.10;55.90;;;;;;5094906;28;20218;-58
2023/07/04 08:05:32;;;;;;;0.03;0.03;;;16.10;55.90;;;;;;5094829;28;20217;-53
2023/07/04 08:08:03;;;;;;;0.00;0.00;;;16.10;56.00;;;;;;5094670;28;20197;-55
2023/07/04 08:10:37;;;;;;;0.10;0.10;;;16.10;56.00;;;;;;5095083;28;20217;-56
2023/07/04 08:13:08;;;;;;;0.00;0.00;;;16.10;56.00;;;;;;5093747;28;20263;-55
2023/07/04 08:15:40;;;;;;;0.10;0.10;;;16.10;56.00;;;;;;5094765;28;20198;-56
2023/07/04 08:18:12;;;;;;;0.10;0.10;;;16.00;56.00;;;;;;5094765;28;20205;-51
2023/07/04 08:20:43;;;;;;;0.10;0.10;;;16.00;56.00;;;;;;5094817;28;20256;-56
2023/07/04 08:23:13;;;;;;;0.10;0.10;;;16.00;56.00;;;;;;5094625;28;20254;-56
2023/07/04 08:25:44;;;;;;;0.10;0.10;;;16.00;56.00;;;;;;5095064;28;20197;-55
2023/07/04 08:28:15;;;;;;;0.10;0.10;;;15.90;56.00;;;;;;5094686;28;20616;-57
2023/07/04 08:30:48;;;;;;;0.10;0.10;;;15.90;56.00;;;;;;5094480;28;20218;-55
2023/07/04 08:33:18;;;;;;;0.20;0.20;;;15.90;56.00;;;;;;5094481;28;20231;-56
2023/07/04 08:35:59;;;;;;;0.10;0.10;;;15.90;56.00;;;;;;5094918;28;20197;-55
2023/07/04 08:38:29;;;;;;;0.10;0.10;;;15.90;56.00;;;;;;5094700;28;20201;-58
2023/07/04 08:41:00;;;;;;;0.10;0.10;;;15.90;56.00;;;;;;5094472;28;20472;-54
2023/07/04 08:43:39;;;;;;;0.10;0.10;;;15.80;55.90;;;;;;5082143;28;20222;-57
2023/07/04 08:46:14;;;;;;;0.10;0.10;;;15.80;55.80;;;;;;5074050;28;20201;-57
2023/07/04 08:48:47;;;;;;;0.10;0.10;;;15.80;55.80;;;;;;5074319;28;20673;-58
2023/07/04 08:51:22;;;;;;;0.10;0.10;;;15.80;55.80;;;;;;5082413;28;20225;-53
2023/07/04 08:53:58;;;;;;;0.00;0.00;;;15.80;55.90;;;;;;5094354;28;20233;-56
2023/07/04 08:56:36;;;;;;;0.10;0.10;;;15.80;56.00;;;;;;5095079;28;20276;-56
2023/07/04 08:59:21;;;;;;;0.10;0.10;;;15.70;55.90;;;;;;5093874;28;20198;-59
2023/07/04 09:02:11;;;;;;;0.10;0.10;;;15.70;56.00;;;;;;5094133;28;20751;-53
2023/07/04 09:04:49;;;;;;;0.05;0.05;;;15.70;56.00;;;;;;5082797;28;20199;-53
2023/07/04 09:07:28;;;;;;;0.10;0.10;;;15.70;56.10;;;;;;5088255;28;20210;-48
2023/07/04 09:10:09;;;;;;;0.10;0.10;;;15.70;56.10;;;;;;5081733;28;20220;-47
2023/07/04 09:12:42;;;;;;;0.00;0.00;;;15.70;56.10;;;;;;5071949;28;20221;-47
2023/07/04 09:15:21;;;;;;;0.05;0.05;;;15.70;56.10;;;;;;5072658;28;20194;-49
2023/07/04 09:18:02;;;;;;;0.05;0.05;;;15.70;56.10;;;;;;5073642;28;20206;-55
2023/07/04 09:20:37;;;;;;;0.00;0.00;;;15.60;56.00;;;;;;5072877;28;20625;-50
2023/07/04 09:23:14;;;;;;;0.10;0.10;;;15.60;56.00;;;;;;5087735;28;20217;-53
2023/07/04 09:25:45;;;;;;;0.00;0.00;;;15.60;55.90;;;;;;5092523;28;20190;-55
2023/07/04 09:28:15;;;;;;;0.03;0.03;;;15.60;56.00;;;;;;5092526;28;20198;-55
2023/07/04 09:30:47;;;;;;;0.10;0.10;;;15.60;56.00;;;;;;5092546;28;20217;-49
2023/07/04 09:33:21;;;;;;;0.10;0.10;;;15.60;56.00;;;;;;5093300;28;20210;-57
2023/07/04 09:35:52;;;;;;;0.00;0.00;;;15.50;56.00;;;;;;5093618;28;20592;-56
2023/07/04 09:38:22;;;;;;;0.10;0.10;;;15.50;56.00;;;;;;5089091;28;20190;-56
2023/07/04 09:40:55;;;;;;;0.10;0.10;;;15.50;56.00;;;;;;5093229;28;20202;-55
2023/07/04 09:43:36;;;;;;;0.10;0.10;;;15.50;56.00;;;;;;5085216;28;20305;-58
2023/07/04 09:46:26;;;;;;;0.00;0.00;;;15.50;56.00;;;;;;5092406;28;20201;-51
2023/07/04 09:49:19;;;;;;;0.10;0.10;;;15.40;56.00;;;;;;5079493;28;20194;-49
2023/07/04 09:52:01;;;;;;;0.10;0.10;;;15.40;55.90;;;;;;5071876;28;20643;-57
2023/07/04 09:54:32;;;;;;;0.00;0.00;;;15.40;55.90;;;;;;5071459;28;20662;-60
2023/07/04 09:57:22;;;;;;;0.10;0.10;;;15.40;56.00;;;;;;5073283;28;20191;-56
2023/07/04 09:59:53;;;;;;;0.10;0.10;;;15.40;56.00;;;;;;5088277;28;20237;-55
2023/07/04 10:02:34;;;;;;;0.00;0.00;;;15.40;55.90;;;;;;5092090;28;20347;-55
2023/07/04 10:05:08;;;;;;;0.10;0.10;;;15.40;55.90;;;;;;5092174;28;20191;-49
2023/07/04 10:07:39;;;;;;;0.10;0.10;;;15.40;55.90;;;;;;5091881;28;20198;-54
2023/07/04 10:10:15;;;;;;;0.10;0.10;;;15.40;56.00;;;;;;5091703;28;20193;-48
2023/07/04 10:12:46;;;;;;;0.05;0.05;;;15.40;56.00;;;;;;5087091;28;20225;-51
2023/07/04 10:15:26;;;;;;;0.10;0.10;;;15.30;55.90;;;;;;5071229;28;20191;-55
2023/07/04 10:17:57;;;;;;;0.00;0.00;;;15.30;56.00;;;;;;5071509;28;20199;-56
2023/07/04 10:20:39;;;;;;;0.10;0.10;;;15.30;56.00;;;;;;5071865;28;20535;-56
2023/07/04 10:23:10;;;;;;;0.10;0.10;;;15.30;56.10;;;;;;5070103;28;20306;-55
2023/07/04 10:25:41;;;;;;;0.10;0.10;;;15.30;56.10;;;;;;5072216;28;20370;-51
2023/07/04 10:28:15;;;;;;;0.10;0.10;;;15.30;56.00;;;;;;5071921;28;20199;-50
2023/07/04 10:30:49;;;;;;;0.10;0.10;;;15.20;56.00;;;;;;5071701;28;20674;-55
2023/07/04 10:33:26;;;;;;;0.10;0.10;;;15.20;56.00;;;;;;5071727;28;20640;-54
2023/07/04 10:36:00;;;;;;;0.10;0.10;;;15.20;56.00;;;;;;5071774;28;20190;-59
2023/07/04 10:38:39;;;;;;;0.10;0.10;;;15.20;56.00;;;;;;5071598;28;20630;-53
2023/07/04 10:41:19;;;;;;;0.00;0.00;;;15.20;56.00;;;;;;5072062;28;20562;-56
2023/07/04 10:43:57;;;;;;;0.00;0.00;;;15.20;56.00;;;;;;5071866;28;20240;-55
2023/07/04 10:46:31;;;;;;;0.10;0.10;;;15.20;56.00;;;;;;5072613;28;20217;-51
2023/07/04 10:49:09;;;;;;;0.10;0.10;;;15.20;55.90;;;;;;5071897;28;20194;-50
2023/07/04 10:51:45;;;;;;;0.10;0.10;;;15.20;56.00;;;;;;5077190;28;20267;-50
2023/07/04 10:54:16;;;;;;;0.10;0.10;;;15.10;56.00;;;;;;5082047;28;20190;-49
2023/07/04 10:56:49;;;;;;;0.10;0.10;;;15.10;56.00;;;;;;5082035;28;20194;-57
2023/07/04 10:59:29;;;;;;;0.10;0.10;;;15.10;56.00;;;;;;5081490;28;20193;-50
2023/07/04 11:02:06;;;;;;;0.10;0.10;;;15.10;56.00;;;;;;5080867;28;20218;-52
2023/07/04 11:04:39;;;;;;;0.00;0.00;;;15.10;56.00;;;;;;5080465;28;20182;-53
2023/07/04 11:07:20;;;;;;;0.10;0.10;;;15.00;56.00;;;;;;5080595;28;20669;-52
2023/07/04 11:09:55;;;;;;;0.10;0.10;;;15.00;56.00;;;;;;5085437;28;20537;-58
2023/07/04 11:12:29;;;;;;;0.10;0.10;;;15.10;56.00;;;;;;5081873;28;20230;-56
2023/07/04 11:15:05;;;;;;;0.10;0.10;;;15.00;56.00;;;;;;5080874;28;20557;-54
2023/07/04 11:17:38;;;;;;;0.10;0.10;;;15.00;56.00;;;;;;5082218;28;20191;-52
2023/07/04 11:20:12;;;;;;;0.10;0.10;;;15.00;56.00;;;;;;5080683;28;20187;-51
2023/07/04 11:22:59;;;;;;;0.10;0.10;;;15.00;56.00;;;;;;5079890;28;20237;-50
2023/07/04 11:25:37;;;;;;;0.10;0.10;;;15.00;56.00;;;;;;5080877;28;20197;-46
2023/07/04 11:28:20;;;;;;;0.10;0.10;;;14.90;55.90;;;;;;5080838;28;20187;-48
2023/07/04 11:30:52;;;;;;;0.10;0.10;;;14.90;55.90;;;;;;5081025;28;20705;-46
2023/07/04 11:33:44;;;;;;;0.10;0.10;;;14.90;55.90;;;;;;5080194;28;20221;-47
2023/07/04 11:36:25;;;;;;;0.05;0.05;;;14.90;55.90;;;;;;5081402;28;20556;-46
2023/07/04 11:39:03;;;;;;;0.10;0.10;;;14.90;55.90;;;;;;5070724;28;20183;-48
2023/07/04 11:41:35;;;;;;;0.10;0.10;;;14.90;55.90;;;;;;5074607;28;20553;-47
2023/07/04 11:44:16;;;;;;;0.10;0.10;;;14.80;55.90;;;;;;5080438;28;20222;-49
2023/07/04 11:46:58;;;;;;;0.10;0.10;;;14.80;55.90;;;;;;5080441;28;20183;-49
2023/07/04 11:49:29;;;;;;;0.10;0.10;;;14.80;55.90;;;;;;5079592;28;20281;-47
2023/07/04 11:52:12;;;;;;;0.20;0.20;;;14.80;55.90;;;;;;5081572;28;20222;-47
2023/07/04 11:54:44;;;;;;;0.10;0.10;;;14.80;56.00;;;;;;5081680;28;20194;-48
2023/07/04 11:57:15;;;;;;;0.10;0.10;;;14.70;55.90;;;;;;5081110;28;20187;-47
2023/07/04 11:59:46;;;;;;;0.10;0.10;;;14.70;55.90;;;;;;5080235;28;20187;-49
2023/07/04 12:02:28;;;;;;;0.10;0.10;;;14.70;55.90;;;;;;5082870;28;20220;-47
2023/07/04 12:05:00;;;;;;;0.10;0.10;;;14.70;55.90;;;;;;5081820;28;20191;-48
2023/07/04 12:07:45;;;;;;;0.10;0.10;;;14.70;55.90;;;;;;5080836;28;20187;-50
2023/07/04 12:10:20;;;;;;;0.10;0.10;;;14.70;55.90;;;;;;5081022;28;20646;-51
2023/07/04 12:13:01;;;;;;;0.10;0.10;;;14.70;55.80;;;;;;5078584;28;20261;-50
2023/07/04 12:15:33;;;;;;;0.10;0.10;;;14.60;55.80;;;;;;5086685;28;20277;-50
2023/07/04 12:18:15;;;;;;;0.10;0.10;;;14.60;55.80;;;;;;5091360;28;20471;-47
2023/07/04 12:20:46;;;;;;;0.10;0.10;;;14.60;55.80;;;;;;5091330;28;20206;-47
2023/07/04 12:23:17;;;;;;;0.13;0.13;;;14.60;55.80;;;;;;5090993;28;20220;-53
2023/07/04 12:25:51;;;;;;;0.10;0.10;;;14.60;55.80;;;;;;5090989;28;20315;-51
2023/07/04 12:28:27;;;;;;;0.10;0.10;;;14.50;55.80;;;;;;5091174;28;20209;-48
2023/07/04 12:31:01;;;;;;;0.10;0.10;;;14.50;55.80;;;;;;5091127;28;20719;-47
2023/07/04 12:33:34;;;;;;;0.10;0.10;;;14.50;55.80;;;;;;5091198;28;20557;-52
2023/07/04 12:36:07;;;;;;;0.00;0.00;;;14.50;55.80;;;;;;5091087;28;20205;-49
2023/07/04 12:38:43;;;;;;;0.10;0.10;;;14.50;55.80;;;;;;5091329;28;20231;-48
2023/07/04 12:41:18;;;;;;;0.10;0.10;;;14.50;55.80;;;;;;5090957;28;20190;-49
2023/07/04 12:43:55;;;;;;;0.10;0.10;;;14.40;55.70;;;;;;5090725;28;20205;-52
2023/07/04 12:46:26;;;;;;;0.10;0.10;;;14.40;55.80;;;;;;5093188;28;20200;-47
2023/07/04 12:48:57;;;;;;;0.10;0.10;;;14.40;55.80;;;;;;5094213;28;20190;-51
2023/07/04 12:51:31;;;;;;;0.10;0.10;;;14.40;55.70;;;;;;5094125;28;20226;-51
2023/07/04 12:54:03;;;;;;;0.10;0.10;;;14.40;55.70;;;;;;5094134;28;20194;-53
2023/07/04 12:56:36;;;;;;;0.10;0.10;;;14.40;55.70;;;;;;5094058;28;20194;-47
2023/07/04 12:59:07;;;;;;;0.10;0.10;;;14.30;55.70;;;;;;5094851;28;20194;-47
2023/07/04 13:01:39;;;;;;;0.10;0.10;;;14.30;55.70;;;;;;5093984;28;20653;-48
2023/07/04 13:04:15;;;;;;;0.10;0.10;;;14.30;55.70;;;;;;5094000;28;20194;-48
2023/07/04 13:06:52;;;;;;;0.10;0.10;;;14.30;55.70;;;;;;5093625;28;20194;-52
2023/07/04 13:09:23;;;;;;;0.10;0.10;;;14.30;55.70;;;;;;5093607;28;20202;-49
2023/07/04 13:11:56;;;;;;;0.10;0.10;;;14.20;55.60;;;;;;5094204;28;20709;-50
2023/07/04 13:14:30;;;;;;;0.10;0.10;;;14.20;55.70;;;;;;5074920;28;20206;-53
2023/07/04 13:17:13;;;;;;;0.10;0.10;;;14.20;55.70;;;;;;5073556;28;20237;-47
2023/07/04 13:19:45;;;;;;;0.10;0.10;;;14.20;55.70;;;;;;5073630;28;20538;-54